createdAt,value
2023-02-17T00:01:33.570Z,212.10
2023-02-17T00:04:01.403Z,217.53
2023-02-17T00:06:30.893Z,218.17
2023-02-17T00:09:00.057Z,215.57
2023-02-17T00:11:28.494Z,218.40
2023-02-17T00:13:56.536Z,220.13
2023-02-17T00:16:26.185Z,226.73
2023-02-17T00:19:00.443Z,223.00
2023-02-17T00:21:31.182Z,217.97
2023-02-17T00:23:59.957Z,216.73
2023-02-17T00:26:27.182Z,227.73
2023-02-17T00:28:55.110Z,218.47
2023-02-17T00:31:23.971Z,217.63
2023-02-17T00:33:56.005Z,219.33
2023-02-17T00:36:23.713Z,223.90
2023-02-17T00:38:51.617Z,220.97
2023-02-17T00:41:19.515Z,212.27
2023-02-17T00:43:48.024Z,221.57
2023-02-17T00:46:17.266Z,217.47
2023-02-17T00:48:46.283Z,229.50
2023-02-17T00:51:14.427Z,226.43
2023-02-17T00:53:42.043Z,219.23
2023-02-17T00:56:10.009Z,222.37
2023-02-17T00:58:38.144Z,221.50
2023-02-17T01:01:05.604Z,225.17
2023-02-17T01:03:33.058Z,222.73
2023-02-17T01:06:05.434Z,233.03
2023-02-17T01:08:33.987Z,226.80
2023-02-17T01:11:01.270Z,221.80
2023-02-17T01:13:29.071Z,218.20
2023-02-17T01:15:56.295Z,218.07
2023-02-17T01:18:24.563Z,223.97
2023-02-17T01:20:52.703Z,221.77
2023-02-17T01:23:20.268Z,227.17
2023-02-17T01:25:49.002Z,222.50
2023-02-17T01:28:21.863Z,230.50
2023-02-17T01:30:49.821Z,230.83
2023-02-17T01:33:17.398Z,214.37
2023-02-17T01:35:46.014Z,225.07
2023-02-17T01:38:13.552Z,225.17
2023-02-17T01:40:49.740Z,225.93
2023-02-17T01:43:18.048Z,222.73
2023-02-17T01:46:07.134Z,222.97
2023-02-17T01:48:43.475Z,221.23
2023-02-17T01:51:19.536Z,212.53
2023-02-17T01:53:55.976Z,220.57
2023-02-17T01:56:25.025Z,225.80
2023-02-17T01:59:04.028Z,225.60
2023-02-17T02:01:32.493Z,220.63
2023-02-17T02:04:03.846Z,217.70
2023-02-17T02:06:32.391Z,223.13
2023-02-17T02:09:18.025Z,215.17
2023-02-17T02:11:47.368Z,212.33
2023-02-17T02:14:18.764Z,215.97
2023-02-17T02:16:49.644Z,216.60
2023-02-17T02:19:58.375Z,226.30
2023-02-17T02:23:03.743Z,221.13
2023-02-17T02:26:04.943Z,220.87
2023-02-17T02:29:09.189Z,212.80
2023-02-17T02:31:57.190Z,223.03
2023-02-17T02:34:43.558Z,217.23
2023-02-17T02:37:25.287Z,218.87
2023-02-17T02:39:55.490Z,222.50
2023-02-17T02:42:24.691Z,211.90
2023-02-17T02:44:52.292Z,211.27
2023-02-17T02:47:59.613Z,214.93
2023-02-17T02:50:54.548Z,212.13
2023-02-17T02:53:50.996Z,213.87
2023-02-17T02:56:36.715Z,217.60
2023-02-17T02:59:36.577Z,218.67
2023-02-17T03:02:18.673Z,217.70
2023-02-17T03:05:12.854Z,220.77
2023-02-17T03:07:46.560Z,211.83
2023-02-17T03:10:14.731Z,216.50
2023-02-17T03:12:42.125Z,221.23
2023-02-17T03:15:27.884Z,217.57
2023-02-17T03:18:01.614Z,223.93
2023-02-17T03:20:36.625Z,220.40
2023-02-17T03:23:05.611Z,223.93
2023-02-17T03:25:32.840Z,225.47
2023-02-17T03:28:00.706Z,210.97
2023-02-17T03:30:28.239Z,221.43
2023-02-17T03:32:55.442Z,212.83
2023-02-17T03:35:22.521Z,215.70
2023-02-17T03:37:50.098Z,221.73
2023-02-17T03:40:17.641Z,220.50
2023-02-17T03:42:45.352Z,218.20
2023-02-17T03:45:12.830Z,241.33
2023-02-17T03:47:40.266Z,221.80
2023-02-17T03:50:10.263Z,216.20
2023-02-17T03:52:37.858Z,209.60
2023-02-17T03:55:05.431Z,225.83
2023-02-17T03:57:34.830Z,217.47
2023-02-17T04:00:02.316Z,217.07
2023-02-17T04:02:41.600Z,222.67
2023-02-17T04:05:11.005Z,214.57
2023-02-17T04:07:38.666Z,226.03
2023-02-17T04:10:09.291Z,219.83
2023-02-17T04:12:37.151Z,212.83
2023-02-17T04:15:04.505Z,219.20
2023-02-17T04:17:31.984Z,223.20
2023-02-17T04:19:59.472Z,240.50
2023-02-17T04:22:26.917Z,245.93
2023-02-17T04:24:54.355Z,224.93
2023-02-17T04:27:21.741Z,231.40
2023-02-17T04:29:48.776Z,219.50
2023-02-17T04:32:16.230Z,229.43
2023-02-17T04:34:43.644Z,216.97
2023-02-17T04:37:11.117Z,228.40
2023-02-17T04:39:38.136Z,229.23
2023-02-17T04:42:05.578Z,222.10
2023-02-17T04:44:32.720Z,220.93
2023-02-17T04:46:59.755Z,209.23
2023-02-17T04:49:26.767Z,224.83
2023-02-17T04:51:53.803Z,227.27
2023-02-17T04:54:22.872Z,218.87
2023-02-17T04:56:50.332Z,219.53
2023-02-17T04:59:17.750Z,216.37
2023-02-17T05:01:45.204Z,219.23
2023-02-17T05:04:12.662Z,218.13
2023-02-17T05:06:40.116Z,211.63
2023-02-17T05:09:07.202Z,227.10
2023-02-17T05:11:34.624Z,218.37
2023-02-17T05:14:02.034Z,219.60
2023-02-17T05:16:29.533Z,211.73
2023-02-17T05:18:57.014Z,216.80
2023-02-17T05:21:24.430Z,232.57
2023-02-17T05:23:51.505Z,223.70
2023-02-17T05:26:18.955Z,239.77
2023-02-17T05:28:46.383Z,233.20
2023-02-17T05:31:14.003Z,230.20
2023-02-17T05:33:41.446Z,238.67
2023-02-17T05:36:10.703Z,227.27
2023-02-17T05:38:39.501Z,223.13
2023-02-17T05:41:07.048Z,216.43
2023-02-17T05:43:34.155Z,225.40
2023-02-17T05:46:06.387Z,230.17
2023-02-17T05:48:34.391Z,230.03
2023-02-17T05:51:01.959Z,229.67
2023-02-17T05:53:32.497Z,233.23
2023-02-17T05:55:59.954Z,225.87
2023-02-17T05:58:27.445Z,222.50
2023-02-17T06:00:54.868Z,223.50
2023-02-17T06:03:21.956Z,221.57
2023-02-17T06:05:49.530Z,215.67
2023-02-17T06:08:16.950Z,219.07
2023-02-17T06:10:44.023Z,220.33
2023-02-17T06:13:11.426Z,221.53
2023-02-17T06:15:38.460Z,210.83
2023-02-17T06:18:05.601Z,209.67
2023-02-17T06:20:32.701Z,217.57
2023-02-17T06:23:00.149Z,219.07
2023-02-17T06:25:27.603Z,216.10
2023-02-17T06:27:55.069Z,228.43
2023-02-17T06:30:22.251Z,224.03
2023-02-17T06:32:49.963Z,219.50
2023-02-17T06:35:17.192Z,224.53
2023-02-17T06:37:44.618Z,218.10
2023-02-17T06:40:12.264Z,222.70
2023-02-17T06:42:39.742Z,225.47
2023-02-17T06:45:07.422Z,223.63
2023-02-17T06:47:35.291Z,223.27
2023-02-17T06:50:02.404Z,233.90
2023-02-17T06:52:29.898Z,227.33
2023-02-17T06:54:56.952Z,217.80
2023-02-17T06:57:24.054Z,229.33
2023-02-17T06:59:51.496Z,219.23
2023-02-17T07:02:19.042Z,224.27
2023-02-17T07:04:46.571Z,221.87
2023-02-17T07:07:14.039Z,231.27
2023-02-17T07:09:41.879Z,229.03
2023-02-17T07:12:09.011Z,220.43
2023-02-17T07:14:36.930Z,218.70
2023-02-17T07:17:04.674Z,218.13
2023-02-17T07:19:32.259Z,214.40
2023-02-17T07:21:59.657Z,219.67
2023-02-17T07:24:26.944Z,213.67
2023-02-17T07:26:56.176Z,215.83
2023-02-17T07:29:23.881Z,229.33
2023-02-17T07:31:51.378Z,220.07
2023-02-17T07:34:18.891Z,219.10
2023-02-17T07:36:46.323Z,221.87
2023-02-17T07:39:13.869Z,210.00
2023-02-17T07:41:40.959Z,217.67
2023-02-17T07:44:10.552Z,239.13
2023-02-17T07:46:39.860Z,221.20
2023-02-17T07:49:07.458Z,219.10
2023-02-17T07:51:35.249Z,219.73
2023-02-17T07:54:03.036Z,216.83
2023-02-17T07:56:31.054Z,213.83
2023-02-17T07:58:58.495Z,219.73
2023-02-17T08:01:26.354Z,215.90
2023-02-17T08:03:54.175Z,213.83
2023-02-17T08:06:24.365Z,223.73
2023-02-17T08:09:11.337Z,214.93
2023-02-17T08:11:58.091Z,217.60
2023-02-17T08:14:28.440Z,221.90
2023-02-17T08:16:56.249Z,225.70
2023-02-17T08:19:23.650Z,225.10
2023-02-17T08:21:51.108Z,229.87
2023-02-17T08:24:19.773Z,223.20
2023-02-17T08:26:47.752Z,227.60
2023-02-17T08:29:15.242Z,227.73
2023-02-17T08:31:43.286Z,223.53
2023-02-17T08:34:13.303Z,213.53
2023-02-17T08:36:41.093Z,219.40
2023-02-17T08:39:16.680Z,217.03
2023-02-17T08:41:44.966Z,210.20
2023-02-17T08:44:16.799Z,222.30
2023-02-17T08:46:45.390Z,214.60
2023-02-17T08:49:13.576Z,219.93
2023-02-17T08:51:40.962Z,210.80
2023-02-17T08:54:10.322Z,220.97
2023-02-17T08:56:39.786Z,227.30
2023-02-17T08:59:08.648Z,217.40
2023-02-17T09:01:37.646Z,217.63
2023-02-17T09:04:08.274Z,235.20
2023-02-17T09:06:43.520Z,212.60
2023-02-17T09:09:14.149Z,221.60
2023-02-17T09:11:41.525Z,220.10
2023-02-17T09:14:09.658Z,213.27
2023-02-17T09:16:41.124Z,214.73
2023-02-17T09:19:08.780Z,214.00
2023-02-17T09:21:35.910Z,220.97
2023-02-17T09:24:02.977Z,216.17
2023-02-17T09:26:30.462Z,229.93
2023-02-17T09:28:58.177Z,222.90
2023-02-17T09:31:27.369Z,222.30
2023-02-17T09:33:55.379Z,229.60
2023-02-17T09:36:29.484Z,225.53
2023-02-17T09:38:57.606Z,224.33
2023-02-17T09:41:38.443Z,245.47
2023-02-17T09:44:08.238Z,226.43
2023-02-17T09:47:10.333Z,237.57
2023-02-17T09:49:51.800Z,220.27
2023-02-17T09:52:28.556Z,226.03
2023-02-17T09:55:11.017Z,228.57
2023-02-17T09:57:53.577Z,364.43
2023-02-17T10:00:47.595Z,229.23
2023-02-17T10:03:38.376Z,235.93
2023-02-17T10:06:44.365Z,227.80
2023-02-17T10:09:28.123Z,220.60
2023-02-17T10:12:16.074Z,215.00
2023-02-17T10:15:05.820Z,232.80
2023-02-17T10:18:00.971Z,223.87
2023-02-17T10:20:35.204Z,220.30
2023-02-17T10:23:10.677Z,229.37
2023-02-17T10:25:55.694Z,232.07
2023-02-17T10:28:36.017Z,223.13
2023-02-17T10:31:46.751Z,221.13
2023-02-17T10:34:37.240Z,235.80
2023-02-17T10:37:22.344Z,225.00
2023-02-17T10:39:57.049Z,220.70
2023-02-17T10:42:35.208Z,224.50
2023-02-17T10:45:21.970Z,221.07
2023-02-17T10:47:49.416Z,223.97
2023-02-17T10:50:24.365Z,224.63
2023-02-17T10:52:52.084Z,224.57
2023-02-17T10:55:39.917Z,219.63
2023-02-17T10:58:31.532Z,223.03
2023-02-17T11:00:59.086Z,235.33
2023-02-17T11:03:34.045Z,218.30
2023-02-17T11:06:22.390Z,230.07
2023-02-17T11:08:50.934Z,217.57
2023-02-17T11:11:28.300Z,217.00
2023-02-17T11:14:19.701Z,220.73
2023-02-17T11:16:59.454Z,222.50
2023-02-17T11:19:30.697Z,221.90
2023-02-17T11:22:00.138Z,226.60
2023-02-17T11:24:30.357Z,216.83
2023-02-17T11:27:04.860Z,227.13
2023-02-17T11:29:34.162Z,227.53
2023-02-17T11:32:09.056Z,222.80
2023-02-17T11:34:40.804Z,222.33
2023-02-17T11:37:13.909Z,220.30
2023-02-17T11:39:42.611Z,229.57
2023-02-17T11:42:32.162Z,229.43
2023-02-17T11:45:01.536Z,222.73
2023-02-17T11:47:50.124Z,221.67
2023-02-17T11:50:41.632Z,225.87
2023-02-17T11:53:43.687Z,232.20
2023-02-17T11:56:18.197Z,225.10
2023-02-17T11:59:11.511Z,231.67
2023-02-17T12:01:53.634Z,220.23
2023-02-17T12:04:25.231Z,225.00
2023-02-17T12:07:33.280Z,226.93
2023-02-17T12:10:23.872Z,225.63
2023-02-17T12:13:32.556Z,235.67
2023-02-17T12:16:02.661Z,229.50
2023-02-17T12:18:38.494Z,228.17
2023-02-17T12:21:24.166Z,224.17
2023-02-17T12:24:10.258Z,212.33
2023-02-17T12:27:08.064Z,212.33
2023-02-17T12:29:47.653Z,223.07
2023-02-17T12:33:13.572Z,223.87
2023-02-17T12:35:59.122Z,210.33
2023-02-17T12:38:42.193Z,212.90
2023-02-17T12:41:58.461Z,214.30
2023-02-17T12:44:32.022Z,223.53
2023-02-17T12:47:09.914Z,219.97
2023-02-17T12:49:48.991Z,231.23
2023-02-17T12:52:34.120Z,223.23
2023-02-17T12:55:13.774Z,215.77
2023-02-17T12:57:56.176Z,361.40
2023-02-17T13:00:34.826Z,215.13
2023-02-17T13:03:03.889Z,207.33
2023-02-17T13:05:46.472Z,212.17
2023-02-17T13:08:44.784Z,210.77
2023-02-17T13:11:25.978Z,212.80
2023-02-17T13:13:53.436Z,218.73
2023-02-17T13:16:20.968Z,211.60
2023-02-17T13:18:51.347Z,209.97
2023-02-17T13:21:25.113Z,211.03
2023-02-17T13:24:36.528Z,203.80
2023-02-17T13:27:37.036Z,207.23
2023-02-17T13:30:22.742Z,206.03
2023-02-17T13:33:07.151Z,202.57
2023-02-17T13:35:37.357Z,212.03
2023-02-17T13:38:05.001Z,206.40
2023-02-17T13:40:40.607Z,204.30
2023-02-17T13:43:19.969Z,201.03
2023-02-17T13:46:01.687Z,210.20
2023-02-17T13:48:36.250Z,229.57
2023-02-17T13:51:06.797Z,207.13
2023-02-17T13:53:40.028Z,219.50
2023-02-17T13:56:28.810Z,217.80
2023-02-17T13:59:18.362Z,218.97
2023-02-17T14:01:46.541Z,199.40
2023-02-17T14:04:28.379Z,215.37
2023-02-17T14:06:59.469Z,199.83
2023-02-17T14:09:30.970Z,198.30
2023-02-17T14:12:02.322Z,209.97
2023-02-17T14:14:37.198Z,211.23
2023-02-17T14:17:26.118Z,210.00
2023-02-17T14:19:53.616Z,209.67
2023-02-17T14:22:31.628Z,217.17
2023-02-17T14:25:13.767Z,206.17
2023-02-17T14:27:48.707Z,203.97
2023-02-17T14:30:28.436Z,204.83
2023-02-17T14:33:17.960Z,204.57
2023-02-17T14:35:54.063Z,211.33
2023-02-17T14:38:37.614Z,203.90
2023-02-17T14:41:09.463Z,214.03
2023-02-17T14:43:37.136Z,204.50
2023-02-17T14:46:04.703Z,210.83
2023-02-17T14:48:31.839Z,212.33
2023-02-17T14:50:59.324Z,200.13
2023-02-17T14:53:33.711Z,211.90
2023-02-17T14:56:12.702Z,205.93
2023-02-17T14:58:40.035Z,201.03
2023-02-17T15:01:07.504Z,207.50
2023-02-17T15:03:34.941Z,354.63
2023-02-17T15:06:02.669Z,213.60
2023-02-17T15:08:35.077Z,223.70
2023-02-17T15:11:03.359Z,194.63
2023-02-17T15:13:31.894Z,197.00
2023-02-17T15:15:59.638Z,203.17
2023-02-17T15:18:28.236Z,205.77
2023-02-17T15:20:55.572Z,199.97
2023-02-17T15:23:26.320Z,203.13
2023-02-17T15:25:55.499Z,201.40
2023-02-17T15:28:22.801Z,200.50
2023-02-17T15:30:54.557Z,201.60
2023-02-17T15:33:23.966Z,202.83
2023-02-17T15:35:53.736Z,215.97
2023-02-17T15:38:22.963Z,197.20
2023-02-17T15:40:50.665Z,197.07
2023-02-17T15:43:20.853Z,201.60
2023-02-17T15:45:48.147Z,212.63
2023-02-17T15:48:25.361Z,197.87
2023-02-17T15:50:53.334Z,217.20
2023-02-17T15:53:20.409Z,197.10
2023-02-17T15:55:48.347Z,210.53
2023-02-17T15:58:21.941Z,212.47
2023-02-17T16:00:51.180Z,238.90
2023-02-17T16:03:19.093Z,249.60
2023-02-17T16:05:46.684Z,212.43
2023-02-17T16:08:14.151Z,208.30
2023-02-17T16:10:42.551Z,204.90
2023-02-17T16:13:16.737Z,214.80
2023-02-17T16:15:44.616Z,209.97
2023-02-17T16:18:22.404Z,221.67
2023-02-17T16:20:51.590Z,205.30
2023-02-17T16:23:18.742Z,198.03
2023-02-17T16:25:47.345Z,201.50
2023-02-17T16:28:20.542Z,201.03
2023-02-17T16:30:49.483Z,195.37
2023-02-17T16:33:18.253Z,196.77
2023-02-17T16:35:46.089Z,192.77
2023-02-17T16:38:22.803Z,198.50
2023-02-17T16:40:52.858Z,199.23
2023-02-17T16:43:27.627Z,202.53
2023-02-17T16:46:01.855Z,207.13
2023-02-17T16:48:33.885Z,194.90
2023-02-17T16:51:01.137Z,205.03
2023-02-17T16:53:28.570Z,198.60
2023-02-17T16:55:56.659Z,237.07
2023-02-17T16:58:26.324Z,208.97
2023-02-17T17:00:56.015Z,216.00
2023-02-17T17:03:23.604Z,211.50
2023-02-17T17:05:52.979Z,203.93
2023-02-17T17:08:21.919Z,203.97
2023-02-17T17:10:49.875Z,203.50
2023-02-17T17:13:18.491Z,214.97
2023-02-17T17:15:46.364Z,222.00
2023-02-17T17:18:21.037Z,207.20
2023-02-17T17:20:48.979Z,204.80
2023-02-17T17:23:16.903Z,204.83
2023-02-17T17:25:46.871Z,204.60
2023-02-17T17:28:19.697Z,207.47
2023-02-17T17:30:47.533Z,201.90
2023-02-17T17:33:15.461Z,196.30
2023-02-17T17:35:43.353Z,212.13
2023-02-17T17:38:15.608Z,198.93
2023-02-17T17:40:53.194Z,189.77
2023-02-17T17:43:22.266Z,198.87
2023-02-17T17:45:50.537Z,203.43
2023-02-17T17:48:18.616Z,192.63
2023-02-17T17:50:51.357Z,198.53
2023-02-17T17:53:18.794Z,192.20
2023-02-17T17:55:48.208Z,196.00
2023-02-17T17:58:17.203Z,188.70
2023-02-17T18:00:44.670Z,201.17
2023-02-17T18:03:12.370Z,197.43
2023-02-17T18:05:39.822Z,196.80
2023-02-17T18:08:09.156Z,193.47
2023-02-17T18:10:39.097Z,198.57
2023-02-17T18:13:08.534Z,183.37
2023-02-17T18:15:35.659Z,182.83
2023-02-17T18:18:03.468Z,184.03
2023-02-17T18:20:31.379Z,174.10
2023-02-17T18:22:58.787Z,197.53
2023-02-17T18:25:26.047Z,188.67
2023-02-17T18:27:53.101Z,183.63
2023-02-17T18:30:23.820Z,182.37
2023-02-17T18:32:51.820Z,192.03
2023-02-17T18:35:20.246Z,190.43
2023-02-17T18:37:47.769Z,203.63
2023-02-17T18:40:19.142Z,188.87
2023-02-17T18:42:46.659Z,194.37
2023-02-17T18:45:15.789Z,200.23
2023-02-17T18:47:44.179Z,192.20
2023-02-17T18:50:13.074Z,214.27
2023-02-17T18:52:41.069Z,200.43
2023-02-17T18:55:09.754Z,190.80
2023-02-17T18:57:37.649Z,205.13
2023-02-17T19:00:09.534Z,198.10
2023-02-17T19:02:38.166Z,187.90
2023-02-17T19:05:08.514Z,187.90
2023-02-17T19:07:35.973Z,212.80
2023-02-17T19:10:03.678Z,200.10
2023-02-17T19:12:31.174Z,199.40
2023-02-17T19:14:59.343Z,182.73
2023-02-17T19:17:26.508Z,178.03
2023-02-17T19:19:53.540Z,183.70
2023-02-17T19:22:21.092Z,187.83
2023-02-17T19:24:52.618Z,190.73
2023-02-17T19:27:20.619Z,182.77
2023-02-17T19:29:48.034Z,184.50
2023-02-17T19:32:15.604Z,190.43
2023-02-17T19:34:42.709Z,190.23
2023-02-17T19:37:10.218Z,187.13
2023-02-17T19:39:37.263Z,185.13
2023-02-17T19:42:05.068Z,191.53
2023-02-17T19:44:32.715Z,189.93
2023-02-17T19:47:00.284Z,184.57
2023-02-17T19:49:27.315Z,188.87
2023-02-17T19:51:55.880Z,191.53
2023-02-17T19:54:24.448Z,191.13
2023-02-17T19:56:52.072Z,186.33
2023-02-17T19:59:19.878Z,190.63
2023-02-17T20:01:46.977Z,183.20
2023-02-17T20:04:14.421Z,185.77
2023-02-17T20:06:45.743Z,189.23
2023-02-17T20:09:21.236Z,190.87
2023-02-17T20:11:52.971Z,189.87
2023-02-17T20:14:21.609Z,188.43
2023-02-17T20:16:49.276Z,189.63
2023-02-17T20:19:16.367Z,188.10
2023-02-17T20:21:45.863Z,194.60
2023-02-17T20:24:14.267Z,197.47
2023-02-17T20:26:45.312Z,190.47
2023-02-17T20:29:13.705Z,193.60
2023-02-17T20:31:41.754Z,194.03
2023-02-17T20:34:29.080Z,193.30
2023-02-17T20:36:57.922Z,192.27
2023-02-17T20:39:28.101Z,195.80
2023-02-17T20:41:56.552Z,201.50
2023-02-17T20:44:27.757Z,188.93
2023-02-17T20:46:56.031Z,190.33
2023-02-17T20:49:23.893Z,192.00
2023-02-17T20:51:51.221Z,190.43
2023-02-17T20:54:18.775Z,195.37
2023-02-17T20:56:47.622Z,186.87
2023-02-17T20:59:15.407Z,187.60
2023-02-17T21:01:43.212Z,194.33
2023-02-17T21:04:11.123Z,196.83
2023-02-17T21:06:41.353Z,189.97
2023-02-17T21:09:15.166Z,199.30
2023-02-17T21:11:42.320Z,190.77
2023-02-17T21:14:09.837Z,189.50
2023-02-17T21:16:37.071Z,190.43
2023-02-17T21:19:05.413Z,191.60
2023-02-17T21:21:33.357Z,187.60
2023-02-17T21:24:00.897Z,206.67
2023-02-17T21:26:28.512Z,188.57
2023-02-17T21:28:55.999Z,188.73
2023-02-17T21:31:23.209Z,187.67
2023-02-17T21:33:50.424Z,183.27
2023-02-17T21:36:18.537Z,186.30
2023-02-17T21:38:47.240Z,183.33
2023-02-17T21:41:19.433Z,181.83
2023-02-17T21:44:05.819Z,185.00
2023-02-17T21:46:33.773Z,182.93
2023-02-17T21:49:02.054Z,185.30
2023-02-17T21:51:29.964Z,180.97
2023-02-17T21:53:57.991Z,178.80
2023-02-17T21:56:25.782Z,184.67
2023-02-17T21:58:54.783Z,182.33
2023-02-17T22:01:25.548Z,180.07
2023-02-17T22:03:53.243Z,177.67
2023-02-17T22:06:33.597Z,189.67
2023-02-17T22:09:01.265Z,176.30
2023-02-17T22:11:35.215Z,178.33
2023-02-17T22:14:14.750Z,181.83
2023-02-17T22:16:41.902Z,183.60
2023-02-17T22:19:14.758Z,179.40
2023-02-17T22:21:43.203Z,180.87
2023-02-17T22:24:10.908Z,182.67
2023-02-17T22:26:38.357Z,182.30
2023-02-17T22:29:05.725Z,181.17
2023-02-17T22:31:33.961Z,180.37
2023-02-17T22:34:06.453Z,184.67
2023-02-17T22:36:35.996Z,185.03
2023-02-17T22:39:06.086Z,185.07
2023-02-17T22:41:34.626Z,186.07
2023-02-17T22:44:03.126Z,176.87
2023-02-17T22:46:30.739Z,183.87
2023-02-17T22:48:58.800Z,182.87
2023-02-17T22:51:37.494Z,182.13
2023-02-17T22:54:05.742Z,176.40
2023-02-17T22:56:33.444Z,177.83
2023-02-17T22:59:03.820Z,178.17
2023-02-17T23:01:34.063Z,178.90
2023-02-17T23:04:02.005Z,179.77
2023-02-17T23:06:33.357Z,177.07
2023-02-17T23:09:01.881Z,178.67
2023-02-17T23:11:54.516Z,174.90
2023-02-17T23:14:28.585Z,177.43
2023-02-17T23:17:10.645Z,172.17
2023-02-17T23:19:42.274Z,175.23
2023-02-17T23:22:16.148Z,171.00
2023-02-17T23:24:47.822Z,175.30
2023-02-17T23:27:15.718Z,173.90
2023-02-17T23:29:43.146Z,174.03
2023-02-17T23:32:10.531Z,171.90
2023-02-17T23:34:38.636Z,170.50
2023-02-17T23:37:06.022Z,170.97
2023-02-17T23:39:37.958Z,172.93
2023-02-17T23:42:05.195Z,175.33
2023-02-17T23:44:32.221Z,171.53
2023-02-17T23:46:59.393Z,171.33
2023-02-17T23:49:26.517Z,172.33
2023-02-17T23:51:53.667Z,170.83
2023-02-17T23:54:21.089Z,174.93
2023-02-17T23:56:48.166Z,174.00
2023-02-17T23:59:15.590Z,169.00
